createdAt,value
2023-02-17T00:00:11.756Z,82.83
2023-02-17T00:01:11.746Z,83.34
2023-02-17T00:02:11.751Z,83.34
2023-02-17T00:03:11.739Z,83.25
2023-02-17T00:04:11.709Z,83.04
2023-02-17T00:05:11.682Z,83.25
2023-02-17T00:06:11.678Z,83.25
2023-02-17T00:07:11.646Z,83.14
2023-02-17T00:08:11.639Z,83.14
2023-02-17T00:09:11.653Z,83.25
2023-02-17T00:10:11.602Z,83.49
2023-02-17T00:11:11.615Z,83.45
2023-02-17T00:12:11.583Z,83.76
2023-02-17T00:13:11.582Z,83.90
2023-02-17T00:14:11.581Z,83.96
2023-02-17T00:15:11.551Z,84.17
2023-02-17T00:16:11.574Z,84.17
2023-02-17T00:17:11.525Z,84.31
2023-02-17T00:18:11.507Z,84.17
2023-02-17T00:19:11.522Z,83.96
2023-02-17T00:20:11.477Z,83.65
2023-02-17T00:21:11.498Z,83.90
2023-02-17T00:22:11.469Z,83.96
2023-02-17T00:23:11.446Z,83.80
2023-02-17T00:24:11.448Z,83.76
2023-02-17T00:25:11.426Z,83.55
2023-02-17T00:26:17.921Z,83.34
2023-02-17T00:27:11.390Z,83.34
2023-02-17T00:28:11.389Z,83.34
2023-02-17T00:29:11.394Z,83.39
2023-02-17T00:30:11.445Z,83.34
2023-02-17T00:31:11.455Z,83.45
2023-02-17T00:32:11.472Z,83.28
2023-02-17T00:33:11.322Z,83.86
2023-02-17T00:34:11.325Z,84.06
2023-02-17T00:35:11.322Z,83.69
2023-02-17T00:36:11.279Z,84.47
2023-02-17T00:37:11.279Z,84.68
2023-02-17T00:38:11.328Z,84.82
2023-02-17T00:39:11.266Z,85.03
2023-02-17T00:40:11.245Z,84.37
2023-02-17T00:41:11.223Z,84.20
2023-02-17T00:42:11.209Z,84.41
2023-02-17T00:43:11.214Z,84.92
2023-02-17T00:44:12.009Z,85.33
2023-02-17T00:45:11.194Z,85.64
2023-02-17T00:46:11.300Z,86.25
2023-02-17T00:47:11.137Z,87.18
2023-02-17T00:48:11.146Z,87.18
2023-02-17T00:49:11.139Z,87.28
2023-02-17T00:50:11.148Z,87.49
2023-02-17T00:51:11.119Z,88.10
2023-02-17T00:52:11.073Z,88.31
2023-02-17T00:53:11.058Z,88.21
2023-02-17T00:54:11.155Z,87.90
2023-02-17T00:55:11.041Z,88.31
2023-02-17T00:56:11.046Z,89.23
2023-02-17T00:57:11.036Z,89.58
2023-02-17T00:58:10.990Z,90.50
2023-02-17T00:59:11.052Z,91.12
2023-02-17T01:00:10.988Z,91.63
2023-02-17T01:01:10.957Z,91.63
2023-02-17T01:02:11.022Z,92.25
2023-02-17T01:03:10.933Z,92.66
2023-02-17T01:04:10.928Z,92.97
2023-02-17T01:05:10.973Z,92.97
2023-02-17T01:06:10.904Z,92.97
2023-02-17T01:07:10.907Z,92.76
2023-02-17T01:08:10.882Z,92.55
2023-02-17T01:09:10.881Z,92.55
2023-02-17T01:10:10.829Z,92.55
2023-02-17T01:11:10.825Z,92.46
2023-02-17T01:12:10.887Z,92.25
2023-02-17T01:13:10.797Z,92.25
2023-02-17T01:14:10.849Z,92.00
2023-02-17T01:15:10.826Z,91.74
2023-02-17T01:16:10.773Z,91.84
2023-02-17T01:17:10.831Z,91.74
2023-02-17T01:18:10.757Z,91.63
2023-02-17T01:19:10.723Z,91.94
2023-02-17T01:20:10.768Z,92.14
2023-02-17T01:21:10.716Z,92.04
2023-02-17T01:22:10.705Z,91.74
2023-02-17T01:23:10.665Z,92.14
2023-02-17T01:24:10.655Z,92.86
2023-02-17T01:25:10.716Z,92.97
2023-02-17T01:26:10.626Z,93.17
2023-02-17T01:27:10.615Z,93.17
2023-02-17T01:28:10.616Z,93.38
2023-02-17T01:29:10.625Z,93.48
2023-02-17T01:30:10.643Z,94.10
2023-02-17T01:31:10.642Z,94.65
2023-02-17T01:32:10.573Z,95.68
2023-02-17T01:33:10.564Z,96.40
2023-02-17T01:34:10.526Z,97.42
2023-02-17T01:35:10.537Z,98.25
2023-02-17T01:36:10.519Z,99.42
2023-02-17T01:37:10.493Z,99.99
2023-02-17T01:38:10.536Z,99.99
2023-02-17T01:39:10.457Z,99.99
2023-02-17T01:40:10.705Z,99.99
2023-02-17T01:41:10.434Z,99.99
2023-02-17T01:42:10.502Z,99.99
2023-02-17T01:43:10.421Z,99.99
2023-02-17T01:44:10.417Z,99.99
2023-02-17T01:45:10.407Z,99.99
2023-02-17T01:46:10.433Z,99.99
2023-02-17T01:47:10.343Z,99.99
2023-02-17T01:48:10.415Z,99.99
2023-02-17T01:49:10.358Z,99.99
2023-02-17T01:50:10.346Z,99.99
2023-02-17T01:51:10.406Z,99.99
2023-02-17T01:52:10.311Z,99.99
2023-02-17T01:53:10.302Z,99.99
2023-02-17T01:54:10.251Z,99.99
2023-02-17T01:55:10.325Z,99.99
2023-02-17T01:56:10.223Z,99.99
2023-02-17T01:57:10.214Z,99.99
2023-02-17T01:58:10.197Z,99.99
2023-02-17T01:59:10.204Z,99.99
2023-02-17T02:00:10.189Z,99.99
2023-02-17T02:01:10.205Z,99.99
2023-02-17T02:02:10.258Z,99.99
2023-02-17T02:03:10.163Z,99.99
2023-02-17T02:04:10.129Z,99.99
2023-02-17T02:05:10.150Z,99.99
2023-02-17T02:06:10.145Z,99.99
2023-02-17T02:07:10.082Z,99.99
2023-02-17T02:08:10.087Z,99.99
2023-02-17T02:09:10.062Z,99.99
2023-02-17T02:10:10.156Z,99.99
2023-02-17T02:11:10.034Z,99.99
2023-02-17T02:12:10.028Z,99.99
2023-02-17T02:13:10.091Z,99.99
2023-02-17T02:14:09.998Z,99.99
2023-02-17T02:15:10.051Z,99.99
2023-02-17T02:16:10.061Z,99.99
2023-02-17T02:17:10.000Z,99.99
2023-02-17T02:18:09.973Z,99.99
2023-02-17T02:19:09.940Z,99.99
2023-02-17T02:20:09.934Z,99.99
2023-02-17T02:21:09.924Z,99.99
2023-02-17T02:22:09.918Z,99.99
2023-02-17T02:23:09.904Z,99.99
2023-02-17T02:24:09.884Z,99.99
2023-02-17T02:25:09.860Z,99.99
2023-02-17T02:26:09.938Z,99.99
2023-02-17T02:27:09.870Z,99.99
2023-02-17T02:28:09.840Z,99.99
2023-02-17T02:29:09.848Z,99.99
2023-02-17T02:30:09.888Z,99.99
2023-02-17T02:31:09.913Z,99.99
2023-02-17T02:32:09.774Z,99.99
2023-02-17T02:33:09.768Z,99.99
2023-02-17T02:34:09.736Z,99.99
2023-02-17T02:35:09.748Z,99.99
2023-02-17T02:36:09.728Z,99.99
2023-02-17T02:37:09.717Z,99.99
2023-02-17T02:38:09.676Z,99.99
2023-02-17T02:39:09.683Z,99.99
2023-02-17T02:40:09.659Z,99.99
2023-02-17T02:41:09.664Z,99.99
2023-02-17T02:42:09.646Z,99.99
2023-02-17T02:43:09.624Z,99.99
2023-02-17T02:44:09.611Z,99.99
2023-02-17T02:45:09.610Z,99.99
2023-02-17T02:46:10.025Z,99.99
2023-02-17T02:47:09.583Z,99.99
2023-02-17T02:48:09.578Z,99.99
2023-02-17T02:49:09.541Z,99.99
2023-02-17T02:50:09.534Z,99.99
2023-02-17T02:51:09.570Z,99.99
2023-02-17T02:52:09.518Z,99.99
2023-02-17T02:53:09.515Z,99.99
2023-02-17T02:54:09.484Z,99.99
2023-02-17T02:55:09.460Z,99.99
2023-02-17T02:56:09.485Z,99.99
2023-02-17T02:57:09.464Z,99.99
2023-02-17T02:58:09.422Z,99.99
2023-02-17T02:59:09.424Z,99.99
2023-02-17T03:00:09.392Z,99.99
2023-02-17T03:01:09.469Z,99.99
2023-02-17T03:02:09.372Z,99.99
2023-02-17T03:03:09.356Z,99.99
2023-02-17T03:04:09.394Z,99.99
2023-02-17T03:05:09.352Z,99.99
2023-02-17T03:06:09.330Z,99.99
2023-02-17T03:07:09.311Z,99.99
2023-02-17T03:08:09.304Z,99.99
2023-02-17T03:09:09.295Z,99.99
2023-02-17T03:10:09.259Z,99.99
2023-02-17T03:11:09.272Z,99.99
2023-02-17T03:12:09.259Z,99.99
2023-02-17T03:13:09.323Z,99.99
2023-02-17T03:14:09.209Z,99.99
2023-02-17T03:15:09.290Z,99.99
2023-02-17T03:16:09.387Z,99.99
2023-02-17T03:17:09.194Z,99.99
2023-02-17T03:18:09.169Z,99.99
2023-02-17T03:19:09.205Z,99.99
2023-02-17T03:20:09.171Z,99.99
2023-02-17T03:21:09.156Z,99.99
2023-02-17T03:22:09.137Z,99.99
2023-02-17T03:23:09.095Z,99.99
2023-02-17T03:24:09.081Z,99.99
2023-02-17T03:25:09.064Z,99.99
2023-02-17T03:26:09.067Z,99.99
2023-02-17T03:27:09.078Z,99.99
2023-02-17T03:28:09.035Z,99.99
2023-02-17T03:29:09.019Z,99.99
2023-02-17T03:30:09.086Z,99.99
2023-02-17T03:31:09.017Z,99.99
2023-02-17T03:32:09.015Z,99.99
2023-02-17T03:33:08.962Z,99.99
2023-02-17T03:34:08.944Z,99.99
2023-02-17T03:35:08.937Z,99.99
2023-02-17T03:36:08.924Z,99.99
2023-02-17T03:37:08.934Z,99.99
2023-02-17T03:38:08.912Z,99.99
2023-02-17T03:39:08.882Z,99.99
2023-02-17T03:40:08.861Z,99.99
2023-02-17T03:41:08.871Z,99.99
2023-02-17T03:42:08.870Z,99.99
2023-02-17T03:43:08.832Z,99.99
2023-02-17T03:44:08.827Z,99.99
2023-02-17T03:45:08.809Z,99.99
2023-02-17T03:46:09.414Z,99.99
2023-02-17T03:47:08.793Z,99.99
2023-02-17T03:48:08.776Z,99.99
2023-02-17T03:49:08.791Z,99.99
2023-02-17T03:50:08.735Z,99.99
2023-02-17T03:51:08.722Z,99.99
2023-02-17T03:52:08.747Z,99.99
2023-02-17T03:53:08.693Z,99.99
2023-02-17T03:54:08.684Z,99.99
2023-02-17T03:55:08.679Z,99.99
2023-02-17T03:56:08.651Z,99.99
2023-02-17T03:57:08.658Z,99.99
2023-02-17T03:58:08.630Z,99.99
2023-02-17T03:59:08.616Z,99.99
2023-02-17T04:00:08.624Z,99.99
2023-02-17T04:01:08.611Z,99.99
2023-02-17T04:02:08.635Z,99.99
2023-02-17T04:03:08.574Z,99.99
2023-02-17T04:04:08.679Z,99.99
2023-02-17T04:05:08.560Z,99.99
2023-02-17T04:06:08.812Z,99.99
2023-02-17T04:07:08.530Z,99.99
2023-02-17T04:08:08.524Z,99.99
2023-02-17T04:09:08.486Z,99.99
2023-02-17T04:10:09.528Z,99.99
2023-02-17T04:11:08.469Z,99.99
2023-02-17T04:12:08.480Z,99.99
2023-02-17T04:13:08.442Z,99.99
2023-02-17T04:14:08.447Z,99.99
2023-02-17T04:15:08.414Z,99.99
2023-02-17T04:16:08.706Z,99.99
2023-02-17T04:17:08.406Z,99.99
2023-02-17T04:18:08.380Z,99.99
2023-02-17T04:19:08.361Z,99.99
2023-02-17T04:20:08.339Z,99.99
2023-02-17T04:21:08.334Z,99.99
2023-02-17T04:22:08.332Z,99.99
2023-02-17T04:23:08.317Z,99.99
2023-02-17T04:24:08.282Z,99.99
2023-02-17T04:25:08.294Z,99.99
2023-02-17T04:26:08.571Z,99.99
2023-02-17T04:27:08.247Z,99.99
2023-02-17T04:28:08.269Z,99.99
2023-02-17T04:29:08.220Z,99.99
2023-02-17T04:30:09.508Z,99.99
2023-02-17T04:31:08.358Z,99.99
2023-02-17T04:32:08.283Z,99.99
2023-02-17T04:33:08.199Z,99.99
2023-02-17T04:34:08.193Z,99.99
2023-02-17T04:35:08.146Z,99.99
2023-02-17T04:36:08.411Z,99.99
2023-02-17T04:37:08.122Z,99.99
2023-02-17T04:38:08.124Z,99.99
2023-02-17T04:39:08.105Z,99.99
2023-02-17T04:40:08.117Z,99.99
2023-02-17T04:41:08.078Z,99.99
2023-02-17T04:42:08.072Z,99.99
2023-02-17T04:43:08.063Z,99.99
2023-02-17T04:44:08.049Z,99.99
2023-02-17T04:45:08.020Z,99.99
2023-02-17T04:46:08.564Z,99.99
2023-02-17T04:47:07.990Z,99.99
2023-02-17T04:48:08.032Z,99.99
2023-02-17T04:49:07.975Z,99.99
2023-02-17T04:50:07.967Z,99.99
2023-02-17T04:51:07.960Z,99.99
2023-02-17T04:52:07.918Z,99.99
2023-02-17T04:53:07.931Z,99.99
2023-02-17T04:54:07.898Z,99.99
2023-02-17T04:55:07.882Z,99.99
2023-02-17T04:56:08.136Z,99.99
2023-02-17T04:57:07.862Z,99.99
2023-02-17T04:58:07.874Z,99.99
2023-02-17T04:59:07.818Z,99.99
2023-02-17T05:00:07.816Z,99.99
2023-02-17T05:01:07.879Z,99.99
2023-02-17T05:02:07.834Z,99.99
2023-02-17T05:03:07.769Z,99.99
2023-02-17T05:04:07.834Z,99.99
2023-02-17T05:05:07.827Z,99.99
2023-02-17T05:06:07.839Z,99.99
2023-02-17T05:07:07.709Z,99.99
2023-02-17T05:08:07.731Z,99.99
2023-02-17T05:09:07.722Z,99.99
2023-02-17T05:10:07.701Z,99.99
2023-02-17T05:11:07.669Z,99.99
2023-02-17T05:12:07.666Z,99.99
2023-02-17T05:13:07.695Z,99.99
2023-02-17T05:14:07.633Z,99.99
2023-02-17T05:15:07.616Z,99.99
2023-02-17T05:16:08.029Z,99.99
2023-02-17T05:17:07.605Z,99.99
2023-02-17T05:18:07.615Z,99.99
2023-02-17T05:19:07.607Z,99.99
2023-02-17T05:20:07.606Z,99.99
2023-02-17T05:21:07.556Z,99.99
2023-02-17T05:22:07.545Z,99.99
2023-02-17T05:23:07.573Z,99.99
2023-02-17T05:24:07.523Z,99.99
2023-02-17T05:25:07.500Z,99.99
2023-02-17T05:26:07.947Z,99.99
2023-02-17T05:27:07.455Z,99.99
2023-02-17T05:28:07.456Z,99.99
2023-02-17T05:29:07.468Z,99.99
2023-02-17T05:30:07.474Z,99.99
2023-02-17T05:31:07.495Z,99.99
2023-02-17T05:32:07.451Z,99.99
2023-02-17T05:33:08.002Z,99.99
2023-02-17T05:34:07.387Z,99.99
2023-02-17T05:35:07.400Z,99.99
2023-02-17T05:36:07.687Z,99.99
2023-02-17T05:37:07.341Z,99.99
2023-02-17T05:38:07.326Z,99.99
2023-02-17T05:39:07.341Z,99.99
2023-02-17T05:40:07.302Z,99.99
2023-02-17T05:41:07.353Z,99.99
2023-02-17T05:42:07.290Z,99.99
2023-02-17T05:43:07.264Z,99.99
2023-02-17T05:44:07.252Z,99.99
2023-02-17T05:45:07.236Z,99.99
2023-02-17T05:46:07.601Z,99.99
2023-02-17T05:47:07.201Z,99.99
2023-02-17T05:48:07.226Z,99.99
2023-02-17T05:49:07.189Z,99.99
2023-02-17T05:50:07.199Z,99.99
2023-02-17T05:51:07.280Z,99.99
2023-02-17T05:52:07.138Z,99.99
2023-02-17T05:53:07.252Z,99.99
2023-02-17T05:54:07.127Z,99.99
2023-02-17T05:55:07.181Z,99.99
2023-02-17T05:56:07.493Z,99.99
2023-02-17T05:57:07.072Z,99.99
2023-02-17T05:58:07.108Z,99.99
2023-02-17T05:59:07.040Z,99.99
2023-02-17T06:00:07.078Z,99.99
2023-02-17T06:01:07.013Z,99.99
2023-02-17T06:02:07.103Z,99.99
2023-02-17T06:03:07.067Z,99.99
2023-02-17T06:04:06.986Z,99.99
2023-02-17T06:05:07.068Z,99.99
2023-02-17T06:06:07.292Z,99.99
2023-02-17T06:07:06.945Z,99.99
2023-02-17T06:08:06.970Z,99.99
2023-02-17T06:09:06.926Z,99.99
2023-02-17T06:10:06.921Z,99.99
2023-02-17T06:11:06.907Z,99.99
2023-02-17T06:12:06.870Z,99.99
2023-02-17T06:13:06.868Z,99.99
2023-02-17T06:14:06.871Z,99.99
2023-02-17T06:15:06.930Z,99.99
2023-02-17T06:16:07.227Z,99.99
2023-02-17T06:17:06.812Z,99.99
2023-02-17T06:18:06.874Z,99.99
2023-02-17T06:19:06.771Z,99.99
2023-02-17T06:20:06.772Z,99.99
2023-02-17T06:21:06.702Z,99.99
2023-02-17T06:22:06.704Z,99.99
2023-02-17T06:23:06.742Z,99.99
2023-02-17T06:24:06.675Z,99.99
2023-02-17T06:25:06.638Z,99.99
2023-02-17T06:26:06.998Z,99.99
2023-02-17T06:27:06.627Z,99.99
2023-02-17T06:28:06.675Z,99.99
2023-02-17T06:29:06.592Z,99.99
2023-02-17T06:30:06.810Z,99.99
2023-02-17T06:31:06.669Z,99.99
2023-02-17T06:32:06.686Z,99.99
2023-02-17T06:33:06.545Z,99.99
2023-02-17T06:34:06.815Z,99.99
2023-02-17T06:35:06.552Z,99.99
2023-02-17T06:36:06.872Z,99.99
2023-02-17T06:37:06.552Z,99.99
2023-02-17T06:38:06.573Z,99.99
2023-02-17T06:39:06.479Z,99.99
2023-02-17T06:40:06.501Z,99.99
2023-02-17T06:41:06.434Z,99.99
2023-02-17T06:42:06.486Z,99.99
2023-02-17T06:43:06.411Z,99.99
2023-02-17T06:44:06.415Z,99.99
2023-02-17T06:45:06.435Z,99.99
2023-02-17T06:46:06.734Z,99.99
2023-02-17T06:47:06.366Z,99.99
2023-02-17T06:48:06.358Z,99.99
2023-02-17T06:49:06.334Z,99.99
2023-02-17T06:50:06.386Z,99.99
2023-02-17T06:51:06.318Z,99.99
2023-02-17T06:52:06.454Z,99.99
2023-02-17T06:53:06.293Z,99.99
2023-02-17T06:54:06.264Z,99.99
2023-02-17T06:55:06.310Z,99.99
2023-02-17T06:56:06.523Z,99.99
2023-02-17T06:57:06.215Z,99.99
2023-02-17T06:58:06.245Z,99.99
2023-02-17T06:59:06.271Z,99.99
2023-02-17T07:00:06.228Z,99.99
2023-02-17T07:01:06.166Z,99.99
2023-02-17T07:02:06.245Z,99.99
2023-02-17T07:03:06.255Z,99.99
2023-02-17T07:04:06.175Z,99.99
2023-02-17T07:05:06.248Z,99.99
2023-02-17T07:06:06.453Z,99.99
2023-02-17T07:07:06.086Z,99.99
2023-02-17T07:08:06.170Z,99.99
2023-02-17T07:09:06.071Z,99.99
2023-02-17T07:10:06.151Z,99.99
2023-02-17T07:11:06.089Z,99.99
2023-02-17T07:12:06.041Z,99.99
2023-02-17T07:13:06.127Z,99.99
2023-02-17T07:14:06.035Z,99.99
2023-02-17T07:15:06.008Z,99.99
2023-02-17T07:16:06.356Z,99.99
2023-02-17T07:17:06.178Z,99.99
2023-02-17T07:18:06.121Z,99.99
2023-02-17T07:19:06.021Z,99.99
2023-02-17T07:20:05.972Z,99.99
2023-02-17T07:21:05.937Z,99.99
2023-02-17T07:22:05.916Z,99.99
2023-02-17T07:23:06.006Z,99.99
2023-02-17T07:24:05.961Z,99.99
2023-02-17T07:25:05.956Z,99.99
2023-02-17T07:26:06.332Z,99.99
2023-02-17T07:27:05.864Z,99.99
2023-02-17T07:28:05.984Z,99.99
2023-02-17T07:29:05.850Z,99.99
2023-02-17T07:30:05.856Z,99.99
2023-02-17T07:31:05.876Z,99.99
2023-02-17T07:32:05.854Z,99.99
2023-02-17T07:33:06.983Z,99.99
2023-02-17T07:34:05.795Z,99.99
2023-02-17T07:35:05.793Z,99.99
2023-02-17T07:36:06.008Z,99.99
2023-02-17T07:37:05.732Z,99.99
2023-02-17T07:38:05.735Z,99.99
2023-02-17T07:39:05.692Z,99.99
2023-02-17T07:40:05.731Z,99.99
2023-02-17T07:41:05.650Z,99.99
2023-02-17T07:43:04.007Z,99.99
2023-02-17T07:44:04.968Z,99.99
2023-02-17T07:45:04.988Z,99.99
2023-02-17T07:46:05.526Z,99.99
2023-02-17T07:47:04.936Z,99.99
2023-02-17T07:48:04.915Z,99.99
2023-02-17T07:49:04.911Z,99.99
2023-02-17T07:50:04.946Z,99.99
2023-02-17T07:51:04.883Z,99.99
2023-02-17T07:52:05.451Z,99.99
2023-02-17T07:53:04.860Z,99.99
2023-02-17T07:54:04.849Z,99.99
2023-02-17T07:55:04.828Z,99.99
2023-02-17T07:56:05.209Z,99.99
2023-02-17T07:57:04.799Z,99.99
2023-02-17T07:58:04.794Z,99.99
2023-02-17T07:59:04.787Z,99.99
2023-02-17T08:00:04.809Z,99.99
2023-02-17T08:01:04.748Z,99.99
2023-02-17T08:02:04.794Z,99.99
2023-02-17T08:03:04.722Z,99.99
2023-02-17T08:04:04.721Z,99.99
2023-02-17T08:05:04.712Z,99.99
2023-02-17T08:06:05.104Z,99.99
2023-02-17T08:07:04.683Z,99.99
2023-02-17T08:08:04.650Z,99.99
2023-02-17T08:09:04.644Z,99.99
2023-02-17T08:10:04.658Z,99.99
2023-02-17T08:11:05.131Z,99.99
2023-02-17T08:12:04.611Z,99.99
2023-02-17T08:13:04.600Z,99.99
2023-02-17T08:14:04.591Z,99.99
2023-02-17T08:15:04.566Z,99.99
2023-02-17T08:16:05.146Z,99.99
2023-02-17T08:17:04.556Z,99.99
2023-02-17T08:18:04.519Z,99.99
2023-02-17T08:19:06.676Z,99.99
2023-02-17T08:20:08.720Z,99.99
2023-02-17T08:21:04.869Z,99.99
2023-02-17T08:22:04.476Z,99.99
2023-02-17T08:23:04.476Z,99.99
2023-02-17T08:24:04.468Z,99.99
2023-02-17T08:25:04.485Z,99.99
2023-02-17T08:26:04.852Z,99.99
2023-02-17T08:27:04.414Z,99.99
2023-02-17T08:28:04.391Z,99.99
2023-02-17T08:29:04.403Z,99.99
2023-02-17T08:30:04.444Z,99.99
2023-02-17T08:31:04.648Z,99.99
2023-02-17T08:32:04.465Z,99.99
2023-02-17T08:33:04.331Z,99.99
2023-02-17T08:34:04.333Z,99.99
2023-02-17T08:35:04.307Z,99.99
2023-02-17T08:36:04.572Z,99.99
2023-02-17T08:37:04.281Z,99.99
2023-02-17T08:38:04.263Z,99.99
2023-02-17T08:39:04.248Z,99.99
2023-02-17T08:40:04.292Z,99.99
2023-02-17T08:41:04.237Z,99.99
2023-02-17T08:42:04.211Z,99.99
2023-02-17T08:43:04.271Z,99.99
2023-02-17T08:44:04.199Z,99.99
2023-02-17T08:45:04.166Z,99.99
2023-02-17T08:46:04.442Z,99.99
2023-02-17T08:47:04.184Z,99.99
2023-02-17T08:48:04.148Z,99.99
2023-02-17T08:49:04.152Z,99.99
2023-02-17T08:50:04.107Z,99.99
2023-02-17T08:51:04.135Z,99.99
2023-02-17T08:52:04.110Z,99.99
2023-02-17T08:53:04.062Z,99.99
2023-02-17T08:54:04.073Z,99.99
2023-02-17T08:55:04.038Z,99.99
2023-02-17T08:56:04.281Z,99.99
2023-02-17T08:57:04.013Z,99.99
2023-02-17T08:58:04.058Z,99.99
2023-02-17T08:59:04.050Z,99.99
2023-02-17T09:00:05.598Z,99.99
2023-02-17T09:01:04.061Z,99.99
2023-02-17T09:02:03.963Z,99.99
2023-02-17T09:03:03.969Z,99.99
2023-02-17T09:04:03.982Z,99.99
2023-02-17T09:05:03.978Z,99.99
2023-02-17T09:06:04.256Z,99.99
2023-02-17T09:07:03.917Z,99.99
2023-02-17T09:08:03.863Z,99.99
2023-02-17T09:09:04.027Z,99.99
2023-02-17T09:10:03.868Z,99.99
2023-02-17T09:11:03.854Z,99.99
2023-02-17T09:12:03.861Z,99.99
2023-02-17T09:13:03.803Z,99.99
2023-02-17T09:14:03.796Z,99.99
2023-02-17T09:15:03.807Z,99.99
2023-02-17T09:16:03.870Z,99.99
2023-02-17T09:17:03.766Z,99.99
2023-02-17T09:18:03.779Z,99.99
2023-02-17T09:19:03.755Z,99.99
2023-02-17T09:20:04.240Z,99.99
2023-02-17T09:21:03.777Z,99.99
2023-02-17T09:22:03.718Z,99.99
2023-02-17T09:23:03.679Z,99.99
2023-02-17T09:24:03.805Z,99.99
2023-02-17T09:25:03.736Z,99.99
2023-02-17T09:26:03.783Z,99.99
2023-02-17T09:27:03.648Z,99.99
2023-02-17T09:28:03.623Z,99.99
2023-02-17T09:29:03.663Z,99.99
2023-02-17T09:30:03.614Z,99.99
2023-02-17T09:31:03.633Z,99.99
2023-02-17T09:32:03.791Z,99.99
2023-02-17T09:33:03.577Z,99.99
2023-02-17T09:34:03.572Z,99.99
2023-02-17T09:35:03.529Z,99.99
2023-02-17T09:36:03.587Z,99.99
2023-02-17T09:37:03.501Z,99.99
2023-02-17T09:38:03.553Z,99.99
2023-02-17T09:39:03.465Z,99.99
2023-02-17T09:40:03.453Z,99.99
2023-02-17T09:41:03.462Z,99.99
2023-02-17T09:42:03.419Z,99.99
2023-02-17T09:43:03.472Z,99.99
2023-02-17T09:44:03.391Z,99.99
2023-02-17T09:45:03.418Z,99.99
2023-02-17T09:46:03.442Z,99.99
2023-02-17T09:47:03.595Z,99.99
2023-02-17T09:48:03.345Z,99.99
2023-02-17T09:49:03.335Z,99.99
2023-02-17T09:50:03.331Z,99.99
2023-02-17T09:51:03.322Z,99.99
2023-02-17T09:52:03.295Z,99.99
2023-02-17T09:53:03.279Z,99.99
2023-02-17T09:54:03.315Z,99.99
2023-02-17T09:55:03.361Z,99.99
2023-02-17T09:56:03.239Z,99.99
2023-02-17T09:57:03.289Z,99.99
2023-02-17T09:58:03.229Z,99.99
2023-02-17T09:59:03.190Z,99.99
2023-02-17T10:00:03.236Z,99.99
2023-02-17T10:01:03.267Z,99.99
2023-02-17T10:02:03.181Z,99.99
2023-02-17T10:03:03.125Z,99.99
2023-02-17T10:04:03.232Z,99.99
2023-02-17T10:05:03.279Z,99.99
2023-02-17T10:06:03.095Z,99.99
2023-02-17T10:07:03.100Z,99.99
2023-02-17T10:08:03.162Z,99.99
2023-02-17T10:09:03.110Z,99.99
2023-02-17T10:10:03.144Z,99.99
2023-02-17T10:11:03.100Z,99.99
2023-02-17T10:12:03.113Z,99.99
2023-02-17T10:13:03.077Z,99.99
2023-02-17T10:14:03.080Z,99.99
2023-02-17T10:15:03.023Z,99.99
2023-02-17T10:16:03.021Z,99.99
2023-02-17T10:17:02.985Z,99.99
2023-02-17T10:18:02.960Z,99.99
2023-02-17T10:19:02.935Z,99.99
2023-02-17T10:20:02.991Z,99.99
2023-02-17T10:21:02.961Z,99.99
2023-02-17T10:22:02.917Z,99.99
2023-02-17T10:23:02.908Z,99.99
2023-02-17T10:24:02.856Z,99.99
2023-02-17T10:25:02.887Z,99.99
2023-02-17T10:26:02.831Z,99.99
2023-02-17T10:27:02.872Z,99.99
2023-02-17T10:28:02.810Z,99.99
2023-02-17T10:29:02.852Z,99.99
2023-02-17T10:30:03.035Z,99.99
2023-02-17T10:31:02.872Z,99.99
2023-02-17T10:32:02.978Z,99.99
2023-02-17T10:33:02.848Z,99.99
2023-02-17T10:34:02.739Z,99.99
2023-02-17T10:35:02.714Z,99.99
2023-02-17T10:36:02.717Z,99.99
2023-02-17T10:37:02.759Z,99.99
2023-02-17T10:38:02.678Z,99.99
2023-02-17T10:39:02.768Z,99.99
2023-02-17T10:40:02.648Z,99.99
2023-02-17T10:41:02.641Z,99.99
2023-02-17T10:42:02.636Z,99.99
2023-02-17T10:43:03.058Z,99.99
2023-02-17T10:44:02.595Z,99.99
2023-02-17T10:45:02.656Z,99.99
2023-02-17T10:46:02.589Z,99.99
2023-02-17T10:47:02.555Z,99.99
2023-02-17T10:48:02.561Z,99.99
2023-02-17T10:49:02.525Z,99.99
2023-02-17T10:50:02.528Z,99.99
2023-02-17T10:51:02.529Z,99.99
2023-02-17T10:52:02.491Z,99.99
2023-02-17T10:53:02.484Z,99.99
2023-02-17T10:54:02.457Z,99.99
2023-02-17T10:55:06.493Z,99.99
2023-02-17T10:56:02.476Z,99.99
2023-02-17T10:57:02.458Z,99.99
2023-02-17T10:58:02.412Z,99.99
2023-02-17T10:59:02.395Z,99.99
2023-02-17T11:00:02.389Z,99.99
2023-02-17T11:01:02.640Z,99.99
2023-02-17T11:02:02.367Z,99.99
2023-02-17T11:03:02.373Z,99.99
2023-02-17T11:04:02.403Z,99.99
2023-02-17T11:05:02.312Z,99.99
2023-02-17T11:06:02.316Z,99.99
2023-02-17T11:07:02.289Z,99.99
2023-02-17T11:08:02.318Z,99.99
2023-02-17T11:09:02.272Z,99.99
2023-02-17T11:10:02.249Z,99.99
2023-02-17T11:11:02.265Z,99.99
2023-02-17T11:12:02.245Z,99.99
2023-02-17T11:13:02.216Z,99.99
2023-02-17T11:14:02.202Z,99.99
2023-02-17T11:15:02.183Z,99.99
2023-02-17T11:16:02.216Z,99.99
2023-02-17T11:17:02.161Z,99.99
2023-02-17T11:18:02.150Z,99.99
2023-02-17T11:19:02.144Z,99.99
2023-02-17T11:20:02.168Z,99.99
2023-02-17T11:21:02.118Z,99.99
2023-02-17T11:22:02.100Z,99.99
2023-02-17T11:23:02.124Z,99.99
2023-02-17T11:24:02.080Z,99.99
2023-02-17T11:25:02.058Z,99.99
2023-02-17T11:26:02.042Z,99.99
2023-02-17T11:27:02.019Z,99.99
2023-02-17T11:28:02.103Z,99.99
2023-02-17T11:29:02.004Z,99.99
2023-02-17T11:30:02.074Z,99.99
2023-02-17T11:31:02.124Z,99.99
2023-02-17T11:32:02.130Z,99.99
2023-02-17T11:33:01.971Z,99.99
2023-02-17T11:34:01.948Z,99.99
2023-02-17T11:35:01.927Z,99.99
2023-02-17T11:36:01.912Z,99.99
2023-02-17T11:37:01.905Z,99.99
2023-02-17T11:38:01.901Z,99.99
2023-02-17T11:39:01.872Z,99.99
2023-02-17T11:40:01.903Z,99.99
2023-02-17T11:41:01.861Z,99.99
2023-02-17T11:42:01.862Z,99.99
2023-02-17T11:43:01.842Z,99.99
2023-02-17T11:44:01.812Z,99.99
2023-02-17T11:45:01.811Z,99.99
2023-02-17T11:46:01.809Z,99.99
2023-02-17T11:47:01.800Z,99.99
2023-02-17T11:48:01.768Z,99.99
2023-02-17T11:49:01.742Z,99.99
2023-02-17T11:50:01.728Z,99.99
2023-02-17T11:51:01.709Z,99.99
2023-02-17T11:52:01.746Z,99.99
2023-02-17T11:53:01.708Z,99.99
2023-02-17T11:54:01.701Z,99.99
2023-02-17T11:55:01.685Z,99.99
2023-02-17T11:56:01.655Z,99.99
2023-02-17T11:57:01.633Z,99.99
2023-02-17T11:58:01.638Z,99.99
2023-02-17T11:59:01.642Z,99.99
2023-02-17T12:00:01.605Z,99.99
2023-02-17T12:01:01.574Z,99.99
2023-02-17T12:02:01.599Z,99.99
2023-02-17T12:03:01.576Z,99.99
2023-02-17T12:04:01.541Z,99.99
2023-02-17T12:05:01.609Z,99.99
2023-02-17T12:06:01.520Z,99.99
2023-02-17T12:07:01.513Z,99.99
2023-02-17T12:08:01.480Z,99.99
2023-02-17T12:09:01.471Z,99.99
2023-02-17T12:10:01.456Z,99.99
2023-02-17T12:11:01.436Z,99.99
2023-02-17T12:12:01.446Z,99.99
2023-02-17T12:13:01.407Z,99.99
2023-02-17T12:14:01.441Z,99.99
2023-02-17T12:15:01.389Z,99.99
2023-02-17T12:16:01.373Z,99.99
2023-02-17T12:17:01.376Z,99.99
2023-02-17T12:18:01.350Z,99.99
2023-02-17T12:19:01.350Z,99.99
2023-02-17T12:20:01.325Z,99.99
2023-02-17T12:21:01.307Z,99.99
2023-02-17T12:22:01.341Z,99.99
2023-02-17T12:23:01.374Z,99.99
2023-02-17T12:24:01.299Z,99.99
2023-02-17T12:25:01.256Z,99.99
2023-02-17T12:26:01.259Z,99.99
2023-02-17T12:27:01.253Z,99.99
2023-02-17T12:28:01.219Z,99.99
2023-02-17T12:29:01.207Z,99.99
2023-02-17T12:30:01.259Z,99.99
2023-02-17T12:31:01.340Z,99.99
2023-02-17T12:32:01.292Z,99.99
2023-02-17T12:33:01.148Z,99.99
2023-02-17T12:34:01.146Z,99.99
2023-02-17T12:35:01.124Z,99.99
2023-02-17T12:36:01.131Z,99.99
2023-02-17T12:37:01.133Z,99.99
2023-02-17T12:38:01.115Z,99.99
2023-02-17T12:39:01.074Z,99.99
2023-02-17T12:40:01.080Z,99.99
2023-02-17T12:41:01.041Z,99.99
2023-02-17T12:42:01.053Z,99.99
2023-02-17T12:43:01.012Z,99.99
2023-02-17T12:44:01.022Z,99.99
2023-02-17T12:45:00.991Z,99.99
2023-02-17T12:46:01.223Z,99.99
2023-02-17T12:47:00.966Z,99.99
2023-02-17T12:48:01.017Z,99.99
2023-02-17T12:49:00.937Z,99.99
2023-02-17T12:50:00.951Z,99.99
2023-02-17T12:51:00.910Z,99.99
2023-02-17T12:52:00.900Z,99.99
2023-02-17T12:53:00.904Z,99.99